Time;durP1;ratioP1;P1;durP2;ratioP2;P2;SDS_P1;SDS_P2;PMS_P1;PMS_P2;Temp;Humidity;BMP_temperature;BMP_pressure;BME280_temperature;BME280_humidity;BME280_pressure;Samples;Min_cycle;Max_cycle;Signal;HPM_P1;HPM_P2
2023/09/21 00:00:45;;;;;;;0.93;0.93;;;16.70;99.90;;;;;;5054110;28;20484;-62
2023/09/21 00:03:14;;;;;;;1.10;1.03;;;16.70;99.90;;;;;;5071972;28;20188;-62
2023/09/21 00:05:40;;;;;;;1.83;0.90;;;16.60;99.90;;;;;;5071403;28;20509;-63
2023/09/21 00:08:06;;;;;;;1.83;1.30;;;16.50;99.90;;;;;;5071889;28;20408;-63
2023/09/21 00:10:32;;;;;;;0.93;0.83;;;16.50;99.90;;;;;;5071727;28;20205;-62
2023/09/21 00:13:04;;;;;;;0.80;0.80;;;16.40;99.90;;;;;;5071877;28;20657;-62
2023/09/21 00:15:30;;;;;;;3.30;1.60;;;16.30;99.90;;;;;;5071544;28;20538;-62
2023/09/21 00:17:57;;;;;;;1.03;0.90;;;16.30;99.90;;;;;;5071773;28;20504;-63
2023/09/21 00:20:35;;;;;;;3.10;1.40;;;16.40;99.90;;;;;;5071787;28;20449;-62
2023/09/21 00:23:06;;;;;;;1.03;1.03;;;16.50;99.90;;;;;;5071657;28;20463;-62
2023/09/21 00:25:32;;;;;;;0.67;0.67;;;16.40;99.90;;;;;;5071288;28;20936;-63
2023/09/21 00:27:58;;;;;;;1.03;0.73;;;16.50;99.90;;;;;;5071610;28;20414;-63
2023/09/21 00:30:23;;;;;;;0.70;0.70;;;16.50;99.90;;;;;;5071705;28;20499;-63
2023/09/21 00:32:49;;;;;;;0.93;0.77;;;16.50;99.90;;;;;;5071541;28;20490;-63
2023/09/21 00:35:15;;;;;;;1.17;1.07;;;16.60;99.90;;;;;;5071172;28;20193;-63
2023/09/21 00:37:41;;;;;;;1.37;1.27;;;16.70;99.90;;;;;;5071292;28;20161;-62
2023/09/21 00:40:17;;;;;;;0.90;0.77;;;16.60;99.90;;;;;;5071468;28;20477;-62
2023/09/21 00:42:46;;;;;;;0.80;0.80;;;16.50;99.90;;;;;;5071393;28;20484;-62
2023/09/21 00:45:13;;;;;;;1.07;0.70;;;16.50;99.90;;;;;;5071331;28;20426;-63
2023/09/21 00:47:44;;;;;;;0.90;0.90;;;16.50;99.90;;;;;;5071304;28;20415;-62
2023/09/21 00:50:12;;;;;;;0.80;0.70;;;16.60;99.90;;;;;;5071357;28;20416;-62
2023/09/21 00:52:43;;;;;;;0.90;0.70;;;16.60;99.90;;;;;;5071378;28;20410;-63
2023/09/21 00:55:11;;;;;;;0.83;0.83;;;16.60;99.90;;;;;;5071071;28;20987;-63
2023/09/21 00:57:40;;;;;;;1.00;0.93;;;16.60;99.90;;;;;;5071095;28;20403;-62
2023/09/21 01:00:13;;;;;;;2.03;1.10;;;16.60;99.90;;;;;;5071348;28;20414;-62
2023/09/21 01:02:42;;;;;;;1.40;1.30;;;16.60;99.90;;;;;;5071178;28;20491;-62
2023/09/21 01:05:16;;;;;;;2.07;1.20;;;16.60;99.90;;;;;;5071135;28;20507;-62
2023/09/21 01:07:42;;;;;;;1.17;0.90;;;16.60;99.90;;;;;;5071793;28;20408;-63
2023/09/21 01:10:13;;;;;;;1.50;1.40;;;16.60;99.90;;;;;;5072183;28;20477;-63
2023/09/21 01:12:40;;;;;;;0.60;0.60;;;16.60;99.90;;;;;;5071238;28;20502;-63
2023/09/21 01:15:13;;;;;;;0.73;0.73;;;16.60;99.90;;;;;;5070858;28;20886;-63
2023/09/21 01:17:41;;;;;;;0.70;0.70;;;16.60;99.90;;;;;;5071015;28;20507;-63
2023/09/21 01:20:22;;;;;;;0.87;0.87;;;16.60;99.90;;;;;;5071421;28;20502;-63
2023/09/21 01:23:08;;;;;;;0.60;0.60;;;16.70;99.90;;;;;;5071192;28;20461;-62
2023/09/21 01:25:40;;;;;;;0.70;0.70;;;16.70;99.90;;;;;;5070640;28;20447;-63
2023/09/21 01:28:16;;;;;;;1.47;1.03;;;16.60;99.90;;;;;;5071031;28;20411;-63
2023/09/21 01:30:45;;;;;;;0.57;0.57;;;16.70;99.90;;;;;;5070975;28;20418;-63
2023/09/21 01:33:12;;;;;;;1.93;1.20;;;16.70;99.90;;;;;;5070951;28;20415;-62
2023/09/21 01:35:38;;;;;;;0.83;0.83;;;16.60;99.90;;;;;;5070504;28;20486;-63
2023/09/21 01:38:08;;;;;;;0.77;0.70;;;16.60;99.90;;;;;;5070767;28;20404;-63
2023/09/21 01:40:34;;;;;;;0.70;0.70;;;16.60;99.90;;;;;;5070899;28;20435;-63
2023/09/21 01:43:09;;;;;;;1.10;1.10;;;16.70;99.90;;;;;;5071267;28;20783;-62
2023/09/21 01:45:37;;;;;;;0.70;0.70;;;16.70;99.90;;;;;;5070509;28;20989;-63
2023/09/21 01:48:10;;;;;;;2.13;0.63;;;16.70;99.90;;;;;;5070837;28;20408;-63
2023/09/21 01:50:48;;;;;;;0.90;0.90;;;16.70;99.90;;;;;;5070776;28;20909;-63
2023/09/21 01:53:16;;;;;;;1.33;1.00;;;16.60;99.90;;;;;;5071836;28;20975;-63
2023/09/21 01:55:43;;;;;;;2.00;1.20;;;16.50;99.90;;;;;;5074238;28;20968;-63
2023/09/21 01:58:12;;;;;;;0.70;0.70;;;16.50;99.90;;;;;;5074344;28;20765;-62
2023/09/21 02:00:39;;;;;;;1.43;1.10;;;16.50;99.90;;;;;;5074245;28;20493;-63
2023/09/21 02:03:09;;;;;;;1.80;1.00;;;16.50;99.90;;;;;;5074073;28;20481;-63
2023/09/21 02:05:38;;;;;;;2.10;1.57;;;16.50;99.90;;;;;;5073793;28;20447;-63
2023/09/21 02:08:04;;;;;;;0.80;0.80;;;16.50;99.90;;;;;;5074443;28;20829;-62
2023/09/21 02:10:31;;;;;;;0.90;0.90;;;16.60;99.90;;;;;;5074462;28;20960;-63
2023/09/21 02:12:59;;;;;;;2.30;1.30;;;16.60;99.90;;;;;;5074052;28;20416;-63
2023/09/21 02:15:26;;;;;;;1.30;1.30;;;16.60;99.90;;;;;;5073556;28;20455;-63
2023/09/21 02:17:54;;;;;;;0.93;0.93;;;16.60;99.90;;;;;;5073927;28;20412;-63
2023/09/21 02:20:20;;;;;;;1.80;1.10;;;16.50;99.90;;;;;;5074115;28;20487;-62
2023/09/21 02:22:52;;;;;;;0.67;0.67;;;16.50;99.90;;;;;;5073800;28;20410;-63
2023/09/21 02:25:18;;;;;;;1.33;1.23;;;16.60;99.90;;;;;;5073480;28;20767;-63
2023/09/21 02:27:48;;;;;;;1.00;1.00;;;16.60;99.90;;;;;;5073757;28;20415;-63
2023/09/21 02:30:23;;;;;;;0.97;0.90;;;16.50;99.90;;;;;;5073825;28;20415;-62
2023/09/21 02:32:50;;;;;;;5.13;1.10;;;16.60;99.90;;;;;;5073920;28;20823;-63
2023/09/21 02:35:19;;;;;;;0.87;0.87;;;16.60;99.90;;;;;;5073394;28;20543;-63
2023/09/21 02:37:48;;;;;;;1.10;1.00;;;16.60;99.90;;;;;;5073670;28;20819;-63
2023/09/21 02:40:16;;;;;;;1.10;1.10;;;16.60;99.90;;;;;;5073476;28;20400;-63
2023/09/21 02:42:46;;;;;;;1.40;1.30;;;16.70;99.90;;;;;;5073423;28;20445;-62
2023/09/21 02:45:12;;;;;;;1.13;1.03;;;16.60;99.90;;;;;;5073437;28;20438;-63
2023/09/21 02:47:41;;;;;;;0.77;0.77;;;16.60;99.90;;;;;;5073229;28;20401;-63
2023/09/21 02:50:25;;;;;;;0.73;0.73;;;16.50;99.90;;;;;;5073407;28;20407;-63
2023/09/21 02:52:54;;;;;;;0.80;0.80;;;16.50;99.90;;;;;;5073341;28;20407;-63
2023/09/21 02:55:20;;;;;;;0.93;0.83;;;16.40;99.90;;;;;;5071683;28;20853;-63
2023/09/21 02:57:54;;;;;;;1.03;1.03;;;16.40;99.90;;;;;;5073128;28;20407;-63
2023/09/21 03:00:21;;;;;;;1.43;1.00;;;16.40;99.90;;;;;;5073165;28;20404;-62
2023/09/21 03:02:49;;;;;;;3.57;1.20;;;16.40;99.90;;;;;;5072976;28;20401;-63
2023/09/21 03:05:16;;;;;;;1.50;1.20;;;16.50;99.90;;;;;;5071597;28;20951;-63
2023/09/21 03:07:43;;;;;;;1.10;1.10;;;16.40;99.90;;;;;;5072901;28;20410;-62
2023/09/21 03:10:13;;;;;;;0.63;0.63;;;16.50;99.90;;;;;;5072994;28;20415;-63
2023/09/21 03:12:39;;;;;;;2.20;2.00;;;16.60;99.90;;;;;;5072911;28;20416;-63
2023/09/21 03:15:16;;;;;;;1.63;1.10;;;16.60;99.90;;;;;;5072576;28;20395;-63
2023/09/21 03:17:42;;;;;;;0.97;0.87;;;16.60;99.90;;;;;;5073105;28;20411;-63
2023/09/21 03:20:25;;;;;;;1.33;1.30;;;16.50;99.90;;;;;;5072794;28;20426;-63
2023/09/21 03:22:53;;;;;;;0.80;0.80;;;16.50;99.90;;;;;;5072696;28;20395;-63
2023/09/21 03:25:25;;;;;;;0.77;0.77;;;16.50;99.90;;;;;;5072316;28;20745;-63
2023/09/21 03:27:52;;;;;;;1.00;1.00;;;16.50;99.90;;;;;;5072866;28;20788;-62
2023/09/21 03:30:19;;;;;;;0.87;0.87;;;16.50;99.90;;;;;;5072515;28;20414;-62
2023/09/21 03:32:45;;;;;;;2.40;1.23;;;16.40;99.90;;;;;;5072542;28;20419;-63
2023/09/21 03:35:11;;;;;;;1.13;1.13;;;16.40;99.90;;;;;;5072256;28;20448;-63
2023/09/21 03:37:41;;;;;;;1.07;1.00;;;16.40;99.90;;;;;;5072282;28;20547;-63
2023/09/21 03:40:09;;;;;;;1.33;1.23;;;16.40;99.90;;;;;;5072236;28;20836;-63
2023/09/21 03:42:35;;;;;;;0.70;0.70;;;16.40;99.90;;;;;;5072197;28;20408;-63
2023/09/21 03:45:02;;;;;;;3.00;1.13;;;16.50;99.90;;;;;;5072183;28;20406;-63
2023/09/21 03:47:29;;;;;;;1.93;1.73;;;16.50;99.90;;;;;;5071933;28;20455;-63
2023/09/21 03:49:54;;;;;;;1.37;1.27;;;16.50;99.90;;;;;;5072248;28;20498;-62
2023/09/21 03:52:22;;;;;;;1.50;1.30;;;16.40;99.90;;;;;;5072212;28;20424;-63
2023/09/21 03:54:48;;;;;;;0.70;0.70;;;16.40;99.90;;;;;;5071915;28;20179;-62
2023/09/21 03:57:16;;;;;;;1.23;0.93;;;16.40;99.90;;;;;;5071705;28;20466;-63
2023/09/21 03:59:43;;;;;;;0.70;0.70;;;16.50;99.90;;;;;;5072008;28;20591;-63
2023/09/21 04:02:08;;;;;;;2.60;1.73;;;16.40;99.90;;;;;;5072108;28;20792;-63
2023/09/21 04:04:34;;;;;;;0.70;0.70;;;16.40;99.90;;;;;;5071920;28;20409;-63
2023/09/21 04:07:00;;;;;;;1.50;1.40;;;16.40;99.90;;;;;;5071525;28;20199;-63
2023/09/21 04:09:25;;;;;;;0.97;0.80;;;16.30;99.90;;;;;;5071819;28;20245;-63
2023/09/21 04:11:51;;;;;;;0.97;0.90;;;16.40;99.90;;;;;;5058351;28;20206;-63
2023/09/21 04:14:17;;;;;;;1.07;1.07;;;16.50;99.90;;;;;;5052181;28;20729;-63
2023/09/21 04:16:42;;;;;;;1.10;1.00;;;16.50;99.90;;;;;;5051034;28;20699;-62
2023/09/21 04:19:10;;;;;;;0.97;0.93;;;16.40;99.90;;;;;;5051637;28;20167;-62
2023/09/21 04:21:39;;;;;;;1.13;0.90;;;16.50;99.90;;;;;;5051517;28;20158;-62
2023/09/21 04:24:06;;;;;;;2.80;0.80;;;16.60;99.90;;;;;;5052599;28;20461;-62
2023/09/21 04:26:32;;;;;;;0.90;0.90;;;16.50;99.90;;;;;;5049476;28;20460;-62
2023/09/21 04:28:57;;;;;;;1.23;1.13;;;16.50;99.90;;;;;;5051115;28;20417;-62
2023/09/21 04:31:23;;;;;;;1.77;1.43;;;16.60;99.90;;;;;;5051646;28;20162;-62
2023/09/21 04:33:49;;;;;;;0.77;0.77;;;16.70;99.90;;;;;;5051584;28;20267;-62
2023/09/21 04:36:14;;;;;;;1.33;1.23;;;16.70;99.90;;;;;;5051077;28;20750;-62
2023/09/21 04:38:42;;;;;;;1.20;1.20;;;16.70;99.90;;;;;;5051483;28;20753;-62
2023/09/21 04:41:14;;;;;;;0.90;0.90;;;16.70;99.90;;;;;;5051613;28;20599;-62
2023/09/21 04:43:41;;;;;;;0.70;0.70;;;16.70;99.90;;;;;;5051436;28;20432;-61
2023/09/21 04:46:07;;;;;;;1.37;1.27;;;16.70;99.90;;;;;;5051094;28;20918;-62
2023/09/21 04:48:33;;;;;;;1.57;1.33;;;16.70;99.90;;;;;;5051394;28;20400;-62
2023/09/21 04:50:59;;;;;;;2.00;1.17;;;16.70;99.90;;;;;;5051327;28;20723;-62
2023/09/21 04:53:27;;;;;;;1.30;1.20;;;16.70;99.90;;;;;;5051555;28;20417;-62
2023/09/21 04:55:53;;;;;;;0.93;0.70;;;16.70;99.90;;;;;;5051033;28;20503;-62
2023/09/21 04:58:19;;;;;;;0.70;0.57;;;16.60;99.90;;;;;;5051253;28;20433;-62
2023/09/21 05:00:45;;;;;;;1.63;1.37;;;16.50;99.90;;;;;;5051357;28;20495;-62
2023/09/21 05:03:11;;;;;;;1.10;1.00;;;16.40;99.90;;;;;;5051230;28;20814;-62
2023/09/21 05:05:36;;;;;;;0.60;0.60;;;16.50;99.90;;;;;;5050718;28;20209;-62
2023/09/21 05:08:03;;;;;;;1.03;0.63;;;16.50;99.90;;;;;;5051209;28;20172;-62
2023/09/21 05:10:30;;;;;;;1.07;0.97;;;16.50;99.90;;;;;;5051315;28;20196;-61
2023/09/21 05:12:57;;;;;;;1.90;1.10;;;16.60;99.90;;;;;;5051086;28;20408;-62
2023/09/21 05:15:23;;;;;;;0.70;0.67;;;16.60;99.90;;;;;;5050654;28;20452;-61
2023/09/21 05:17:49;;;;;;;0.93;0.93;;;16.50;99.90;;;;;;5051084;28;20484;-62
2023/09/21 05:20:15;;;;;;;0.93;0.93;;;16.50;99.90;;;;;;5049812;28;20520;-62
2023/09/21 05:22:42;;;;;;;0.97;0.87;;;16.50;99.90;;;;;;5051172;28;20467;-62
2023/09/21 05:25:09;;;;;;;0.70;0.70;;;16.50;99.90;;;;;;5050891;28;20162;-62
2023/09/21 05:27:36;;;;;;;1.20;0.90;;;16.50;99.90;;;;;;5050865;28;20781;-62
2023/09/21 05:30:04;;;;;;;2.87;1.10;;;16.60;99.90;;;;;;5054920;28;20433;-62
2023/09/21 05:32:33;;;;;;;2.80;1.20;;;16.70;99.90;;;;;;5054876;28;20446;-62
2023/09/21 05:34:59;;;;;;;2.67;0.90;;;16.80;99.90;;;;;;5054234;28;20770;-62
2023/09/21 05:37:25;;;;;;;2.80;0.97;;;16.80;99.90;;;;;;5054272;28;20428;-62
2023/09/21 05:39:51;;;;;;;1.80;0.80;;;16.80;99.90;;;;;;5036600;28;20419;-62
2023/09/21 05:42:17;;;;;;;2.43;2.23;;;16.80;99.90;;;;;;5054616;28;20210;-62
2023/09/21 05:44:43;;;;;;;0.60;0.60;;;16.80;99.90;;;;;;5054650;28;20443;-62
2023/09/21 05:47:09;;;;;;;2.40;1.43;;;16.80;99.90;;;;;;5054166;28;20195;-62
2023/09/21 05:49:37;;;;;;;0.60;0.60;;;16.90;99.90;;;;;;5054537;28;20944;-62
2023/09/21 05:52:08;;;;;;;0.93;0.90;;;17.00;99.90;;;;;;5054450;28;20409;-62
2023/09/21 05:54:35;;;;;;;0.80;0.80;;;17.20;99.90;;;;;;5054391;28;20420;-62
2023/09/21 05:57:00;;;;;;;2.70;0.90;;;17.20;99.90;;;;;;5053902;28;21111;-62
2023/09/21 05:59:27;;;;;;;1.20;1.10;;;17.30;99.90;;;;;;5054421;28;20489;-62
2023/09/21 06:01:53;;;;;;;1.47;1.37;;;17.30;99.90;;;;;;5054184;28;20531;-62
2023/09/21 06:04:21;;;;;;;1.73;1.63;;;17.20;99.90;;;;;;5054199;28;20984;-62
2023/09/21 06:06:47;;;;;;;0.83;0.83;;;17.20;99.90;;;;;;5053659;28;20458;-63
2023/09/21 06:09:18;;;;;;;0.97;0.87;;;17.20;99.90;;;;;;5054095;28;20413;-63
2023/09/21 06:11:45;;;;;;;1.00;1.00;;;17.30;99.90;;;;;;5054163;28;20410;-63
2023/09/21 06:14:11;;;;;;;0.80;0.80;;;17.40;99.90;;;;;;5054040;28;20414;-63
2023/09/21 06:16:36;;;;;;;1.37;1.27;;;17.50;99.90;;;;;;5053724;28;20454;-63
2023/09/21 06:19:02;;;;;;;0.73;0.73;;;17.60;99.90;;;;;;5054045;28;20412;-63
2023/09/21 06:21:30;;;;;;;0.70;0.70;;;17.90;99.90;;;;;;5053968;28;20170;-63
2023/09/21 06:23:56;;;;;;;1.63;1.40;;;18.10;99.90;;;;;;5053845;28;20662;-63
2023/09/21 06:26:22;;;;;;;0.63;0.63;;;18.20;99.90;;;;;;5053061;28;20429;-62
2023/09/21 06:28:49;;;;;;;0.93;0.90;;;18.40;99.90;;;;;;5053309;28;20602;-63
2023/09/21 06:31:16;;;;;;;0.83;0.80;;;18.40;99.90;;;;;;5054345;28;20411;-63
2023/09/21 06:33:42;;;;;;;1.80;1.53;;;18.30;99.90;;;;;;5054022;28;20522;-63
2023/09/21 06:36:20;;;;;;;2.30;1.10;;;18.30;99.90;;;;;;5053219;28;20800;-64
2023/09/21 06:38:47;;;;;;;1.40;1.30;;;18.20;99.90;;;;;;5053404;28;20405;-63
2023/09/21 06:41:13;;;;;;;0.83;0.83;;;18.20;99.90;;;;;;5053401;28;20410;-63
2023/09/21 06:43:42;;;;;;;2.03;0.83;;;18.10;99.90;;;;;;5053540;28;20469;-63
2023/09/21 06:46:08;;;;;;;1.70;1.60;;;18.00;99.90;;;;;;5053153;28;20450;-63
2023/09/21 06:48:33;;;;;;;0.70;0.70;;;17.90;99.90;;;;;;5053442;28;20466;-63
2023/09/21 06:50:59;;;;;;;1.20;1.13;;;17.90;99.90;;;;;;5053476;28;20437;-63
2023/09/21 06:53:25;;;;;;;0.87;0.87;;;18.00;99.90;;;;;;5053424;28;20709;-63
2023/09/21 06:55:51;;;;;;;1.70;1.00;;;18.10;99.90;;;;;;5052774;28;20297;-63
2023/09/21 06:58:16;;;;;;;1.47;1.37;;;18.20;99.90;;;;;;5053253;28;20181;-63
2023/09/21 07:00:42;;;;;;;1.03;0.73;;;18.40;99.90;;;;;;5053201;28;20416;-63
2023/09/21 07:03:09;;;;;;;0.87;0.70;;;18.50;99.90;;;;;;5053181;28;20176;-63
2023/09/21 07:05:35;;;;;;;7.30;1.97;;;18.60;99.90;;;;;;5052650;28;20459;-63
2023/09/21 07:08:00;;;;;;;0.87;0.87;;;18.70;99.90;;;;;;5053067;28;20438;-63
2023/09/21 07:10:26;;;;;;;1.13;1.03;;;18.80;99.90;;;;;;5052398;28;20907;-63
2023/09/21 07:12:53;;;;;;;1.90;0.90;;;18.90;99.90;;;;;;5052717;28;20178;-63
2023/09/21 07:15:19;;;;;;;0.90;0.80;;;18.90;99.90;;;;;;5052552;28;20685;-63
2023/09/21 07:17:45;;;;;;;0.83;0.83;;;19.00;99.90;;;;;;5052801;28;20401;-64
2023/09/21 07:20:12;;;;;;;1.57;1.20;;;19.20;99.90;;;;;;5052902;28;20487;-63
2023/09/21 07:22:37;;;;;;;2.00;1.30;;;19.30;99.90;;;;;;5052667;28;20409;-64
2023/09/21 07:25:03;;;;;;;0.80;0.80;;;19.40;99.90;;;;;;5051803;28;20932;-63
2023/09/21 07:27:29;;;;;;;1.33;1.23;;;19.50;99.90;;;;;;5052362;28;20197;-63
2023/09/21 07:29:56;;;;;;;1.73;1.63;;;19.60;99.90;;;;;;5052224;28;20412;-64
2023/09/21 07:32:28;;;;;;;1.67;1.57;;;19.80;99.90;;;;;;5052265;28;20786;-63
2023/09/21 07:34:54;;;;;;;1.47;1.33;;;20.10;99.90;;;;;;5052303;28;20404;-62
2023/09/21 07:37:20;;;;;;;1.03;1.03;;;20.40;99.90;;;;;;5052092;28;20456;-62
2023/09/21 07:39:45;;;;;;;8.03;1.90;;;20.70;99.90;;;;;;5052261;28;20178;-64
2023/09/21 07:42:11;;;;;;;1.63;1.00;;;21.00;99.40;;;;;;5052096;28;20178;-64
2023/09/21 07:44:37;;;;;;;1.07;0.97;;;21.30;98.80;;;;;;5051796;28;20539;-64
2023/09/21 07:47:04;;;;;;;1.17;1.07;;;21.50;98.60;;;;;;5051718;28;20586;-64
2023/09/21 07:49:29;;;;;;;2.20;0.90;;;22.10;98.10;;;;;;5052805;28;20416;-64
2023/09/21 07:51:55;;;;;;;3.63;1.20;;;22.80;97.40;;;;;;5051523;28;20416;-64
2023/09/21 07:54:22;;;;;;;0.93;0.77;;;23.70;95.90;;;;;;5051769;28;20166;-64
2023/09/21 07:56:48;;;;;;;2.87;0.90;;;24.40;94.20;;;;;;5051671;28;20252;-64
2023/09/21 07:59:15;;;;;;;0.90;0.90;;;24.40;92.20;;;;;;5052146;28;20806;-64
2023/09/21 08:01:41;;;;;;;1.27;1.17;;;24.40;92.00;;;;;;5052060;28;20405;-64
2023/09/21 08:04:07;;;;;;;2.20;0.80;;;24.20;91.10;;;;;;5051944;28;20396;-64
2023/09/21 08:06:33;;;;;;;1.67;1.10;;;24.10;91.50;;;;;;5051460;28;20232;-64
2023/09/21 08:08:58;;;;;;;1.30;1.20;;;24.10;91.10;;;;;;5052210;28;20284;-64
2023/09/21 08:11:24;;;;;;;1.00;0.90;;;24.00;90.60;;;;;;5064624;28;20534;-64
2023/09/21 08:13:50;;;;;;;1.70;1.10;;;23.90;91.40;;;;;;5071835;28;20165;-63
2023/09/21 08:16:16;;;;;;;1.77;1.53;;;23.90;91.40;;;;;;5071360;28;20201;-64
2023/09/21 08:18:42;;;;;;;1.10;1.00;;;24.50;91.50;;;;;;5071793;28;20545;-63
2023/09/21 08:21:09;;;;;;;0.97;0.90;;;25.80;90.70;;;;;;5071697;28;20404;-64
2023/09/21 08:23:36;;;;;;;1.50;1.10;;;28.20;83.20;;;;;;5071578;28;20418;-64
2023/09/21 08:26:02;;;;;;;1.13;1.03;;;30.40;71.50;;;;;;5071286;28;20423;-64
2023/09/21 08:28:29;;;;;;;1.37;1.27;;;32.20;66.00;;;;;;5071637;28;20407;-64
2023/09/21 08:30:56;;;;;;;0.73;0.73;;;33.50;56.80;;;;;;5071807;28;20411;-64
2023/09/21 08:33:22;;;;;;;0.83;0.80;;;34.80;55.20;;;;;;5071775;28;20412;-64
2023/09/21 08:35:48;;;;;;;1.00;0.70;;;36.00;50.70;;;;;;5071156;28;20555;-64
2023/09/21 08:38:14;;;;;;;0.80;0.70;;;36.90;48.40;;;;;;5071384;28;20210;-64
2023/09/21 08:40:46;;;;;;;1.10;0.87;;;37.30;45.60;;;;;;5070602;28;20408;-64
2023/09/21 08:43:22;;;;;;;0.97;0.93;;;37.60;44.20;;;;;;5069682;28;21174;-64
2023/09/21 08:45:50;;;;;;;1.30;0.80;;;37.20;44.40;;;;;;5069247;28;20427;-64
2023/09/21 08:48:22;;;;;;;0.57;0.53;;;36.00;43.20;;;;;;5069271;28;20511;-64
2023/09/21 08:50:51;;;;;;;0.70;0.70;;;34.50;45.90;;;;;;5069389;28;20442;-64
2023/09/21 08:53:21;;;;;;;0.83;0.67;;;33.20;47.20;;;;;;5069551;28;20403;-64
2023/09/21 08:55:54;;;;;;;1.60;0.80;;;32.10;51.80;;;;;;5069038;28;20487;-64
2023/09/21 08:58:24;;;;;;;1.70;0.90;;;31.30;53.30;;;;;;5071166;28;20400;-64
2023/09/21 09:00:56;;;;;;;1.03;0.87;;;30.70;53.20;;;;;;5071265;28;20400;-64
2023/09/21 09:03:26;;;;;;;1.23;1.07;;;30.60;53.30;;;;;;5072714;28;20406;-64
2023/09/21 09:05:58;;;;;;;0.50;0.50;;;31.20;52.10;;;;;;5074924;28;20481;-64
2023/09/21 09:08:28;;;;;;;1.07;0.60;;;31.60;47.80;;;;;;5075407;28;20407;-64
2023/09/21 09:10:53;;;;;;;0.60;0.60;;;32.00;48.00;;;;;;5075349;28;20495;-64
2023/09/21 09:13:31;;;;;;;1.17;0.80;;;31.70;48.40;;;;;;5075597;28;20490;-64
2023/09/21 09:15:58;;;;;;;0.63;0.50;;;30.50;49.30;;;;;;5075123;28;20275;-63
2023/09/21 09:18:24;;;;;;;0.40;0.40;;;29.30;57.20;;;;;;5075512;28;20909;-64
2023/09/21 09:20:50;;;;;;;0.70;0.70;;;28.10;59.20;;;;;;5075318;28;20444;-64
2023/09/21 09:23:17;;;;;;;1.27;0.73;;;27.20;59.60;;;;;;5075296;28;20178;-62
2023/09/21 09:25:43;;;;;;;0.93;0.80;;;26.60;58.50;;;;;;5074741;28;20459;-63
2023/09/21 09:28:09;;;;;;;1.07;1.03;;;26.30;59.40;;;;;;5074856;28;20415;-63
2023/09/21 09:30:36;;;;;;;0.70;0.70;;;26.10;58.70;;;;;;5075101;28;20399;-63
2023/09/21 09:33:03;;;;;;;1.60;1.50;;;25.80;62.70;;;;;;5074876;28;20416;-63
2023/09/21 09:35:30;;;;;;;0.70;0.70;;;25.70;62.20;;;;;;5074433;28;21002;-63
2023/09/21 09:37:57;;;;;;;1.10;1.00;;;25.60;61.70;;;;;;5074777;28;20396;-63
2023/09/21 09:40:24;;;;;;;0.87;0.87;;;25.60;63.60;;;;;;5074652;28;20400;-63
2023/09/21 09:42:51;;;;;;;9.33;6.63;;;25.80;61.90;;;;;;5074710;28;20407;-63
2023/09/21 09:45:24;;;;;;;0.97;0.77;;;25.90;60.40;;;;;;5074456;28;20750;-63
2023/09/21 09:47:57;;;;;;;0.60;0.60;;;26.20;58.80;;;;;;5074177;28;20490;-63
2023/09/21 09:50:33;;;;;;;0.70;0.60;;;26.40;58.50;;;;;;5073977;28;20751;-63
2023/09/21 09:53:06;;;;;;;0.93;0.63;;;26.50;57.40;;;;;;5074439;28;21224;-63
2023/09/21 09:55:35;;;;;;;0.77;0.77;;;26.70;59.90;;;;;;5073913;28;20512;-64
2023/09/21 09:58:02;;;;;;;0.70;0.70;;;26.90;59.60;;;;;;5074190;28;20469;-64
2023/09/21 10:00:30;;;;;;;0.90;0.90;;;27.20;58.40;;;;;;5074319;28;20399;-64
2023/09/21 10:02:56;;;;;;;0.73;0.73;;;27.40;55.60;;;;;;5074282;28;20469;-64
2023/09/21 10:05:27;;;;;;;1.70;1.00;;;28.20;56.70;;;;;;5073733;28;20582;-64
2023/09/21 10:07:56;;;;;;;1.03;0.70;;;28.90;53.30;;;;;;5074134;28;20627;-64
2023/09/21 10:10:25;;;;;;;2.83;0.70;;;29.40;53.50;;;;;;5074125;28;20408;-64
2023/09/21 10:12:52;;;;;;;2.20;1.03;;;29.40;52.60;;;;;;5074155;28;20404;-64
2023/09/21 10:15:23;;;;;;;1.43;0.90;;;29.20;52.10;;;;;;5073092;28;20407;-63
2023/09/21 10:17:53;;;;;;;0.70;0.50;;;28.90;51.90;;;;;;5073812;28;20406;-64
2023/09/21 10:20:25;;;;;;;0.53;0.53;;;28.40;52.30;;;;;;5073256;28;20407;-64
2023/09/21 10:22:54;;;;;;;1.23;0.80;;;27.90;52.50;;;;;;5071892;28;20415;-63
2023/09/21 10:25:39;;;;;;;0.53;0.53;;;27.60;54.40;;;;;;5071607;28;20403;-63
2023/09/21 10:28:29;;;;;;;0.60;0.60;;;27.40;58.00;;;;;;5071900;28;20408;-64
2023/09/21 10:31:09;;;;;;;0.60;0.60;;;27.30;60.50;;;;;;5072504;28;20430;-64
2023/09/21 10:33:48;;;;;;;0.70;0.53;;;27.50;58.80;;;;;;5072767;28;20482;-63
2023/09/21 10:36:27;;;;;;;0.80;0.73;;;27.70;54.20;;;;;;5073350;28;20876;-63
2023/09/21 10:39:10;;;;;;;0.60;0.60;;;28.00;54.20;;;;;;5073695;28;20491;-63
2023/09/21 10:41:45;;;;;;;0.47;0.47;;;28.00;52.60;;;;;;5073609;28;20404;-63
2023/09/21 10:44:12;;;;;;;1.60;1.00;;;27.30;55.20;;;;;;5073683;28;20400;-63
2023/09/21 10:46:41;;;;;;;0.50;0.50;;;26.40;54.90;;;;;;5073165;28;20427;-63
2023/09/21 10:49:06;;;;;;;0.60;0.60;;;25.80;56.90;;;;;;5073386;28;20459;-63
2023/09/21 10:51:34;;;;;;;0.63;0.63;;;25.50;61.00;;;;;;5073423;28;20440;-63
2023/09/21 10:54:04;;;;;;;0.80;0.63;;;25.50;64.30;;;;;;5073404;28;20174;-63
2023/09/21 10:56:31;;;;;;;1.10;0.70;;;25.30;68.60;;;;;;5073027;28;20451;-63
2023/09/21 10:58:57;;;;;;;0.50;0.50;;;25.00;70.70;;;;;;5073333;28;20410;-63
2023/09/21 11:01:23;;;;;;;0.40;0.40;;;24.60;61.30;;;;;;5073258;28;20909;-63
2023/09/21 11:03:49;;;;;;;0.90;0.90;;;24.30;62.50;;;;;;5073071;28;20249;-63
2023/09/21 11:06:17;;;;;;;0.50;0.50;;;24.10;62.80;;;;;;5072645;28;20447;-63
2023/09/21 11:08:45;;;;;;;2.30;0.60;;;24.20;62.30;;;;;;5073142;28;20419;-64
2023/09/21 11:11:14;;;;;;;0.50;0.50;;;24.20;63.30;;;;;;5055308;28;20778;-63
2023/09/21 11:13:40;;;;;;;0.40;0.40;;;24.20;62.30;;;;;;5073001;28;20497;-63
2023/09/21 11:16:06;;;;;;;0.90;0.80;;;24.10;65.40;;;;;;5072482;28;20455;-63
2023/09/21 11:18:32;;;;;;;0.47;0.43;;;24.10;66.90;;;;;;5072737;28;20901;-63
2023/09/21 11:20:59;;;;;;;0.60;0.60;;;24.10;66.50;;;;;;5072803;28;20877;-63
2023/09/21 11:23:24;;;;;;;0.90;0.90;;;24.10;74.60;;;;;;5072770;28;20386;-63
2023/09/21 11:25:50;;;;;;;0.90;0.90;;;24.00;72.50;;;;;;5071475;28;20424;-63
2023/09/21 11:28:19;;;;;;;0.70;0.70;;;24.00;74.80;;;;;;5072675;28;20170;-63
2023/09/21 11:30:45;;;;;;;1.17;1.00;;;24.00;73.60;;;;;;5072738;28;20165;-63
2023/09/21 11:33:12;;;;;;;0.90;0.90;;;24.00;75.00;;;;;;5072321;28;20768;-63
2023/09/21 11:35:38;;;;;;;0.80;0.77;;;24.10;71.00;;;;;;5071837;28;20219;-63
2023/09/21 11:38:04;;;;;;;1.17;1.07;;;24.20;70.40;;;;;;5072445;28;20905;-63
2023/09/21 11:40:31;;;;;;;1.20;1.10;;;24.20;71.60;;;;;;5072499;28;20403;-64
2023/09/21 11:42:59;;;;;;;1.67;1.50;;;24.20;72.10;;;;;;5072126;28;20219;-63
2023/09/21 11:45:26;;;;;;;3.70;0.83;;;24.30;73.00;;;;;;5071823;28;20466;-63
2023/09/21 11:47:57;;;;;;;1.60;1.17;;;24.40;74.20;;;;;;5071853;28;20396;-63
2023/09/21 11:50:27;;;;;;;1.17;1.07;;;24.40;73.80;;;;;;5071896;28;20408;-63
2023/09/21 11:52:54;;;;;;;2.50;1.93;;;24.50;74.30;;;;;;5071451;28;20412;-63
2023/09/21 11:55:30;;;;;;;1.20;1.10;;;24.80;72.50;;;;;;5053820;28;20419;-63
2023/09/21 11:58:10;;;;;;;1.03;0.93;;;25.10;69.70;;;;;;5072135;28;20643;-63
2023/09/21 12:00:43;;;;;;;1.33;1.23;;;25.30;72.30;;;;;;5072027;28;20407;-64
2023/09/21 12:03:12;;;;;;;1.70;1.40;;;25.40;67.40;;;;;;5072179;28;20510;-64
2023/09/21 12:05:39;;;;;;;1.30;1.20;;;25.50;66.70;;;;;;5071631;28;20838;-64
2023/09/21 12:08:05;;;;;;;1.00;0.67;;;25.80;67.40;;;;;;5071937;28;20850;-64
2023/09/21 12:10:31;;;;;;;1.03;0.93;;;26.10;63.50;;;;;;5071644;28;20411;-65
2023/09/21 12:12:57;;;;;;;1.43;0.90;;;26.50;63.40;;;;;;5072095;28;20408;-64
2023/09/21 12:15:23;;;;;;;0.60;0.60;;;26.70;62.10;;;;;;5071557;28;20411;-65
2023/09/21 12:17:48;;;;;;;10.03;1.37;;;26.80;61.00;;;;;;5071765;28;20172;-65
2023/09/21 12:20:18;;;;;;;0.83;0.83;;;26.20;58.80;;;;;;5071882;28;20657;-65
2023/09/21 12:22:44;;;;;;;1.30;1.20;;;25.80;59.80;;;;;;5071822;28;20193;-64
2023/09/21 12:25:11;;;;;;;1.87;1.77;;;25.50;61.60;;;;;;5071448;28;20900;-64
2023/09/21 12:27:38;;;;;;;1.07;0.80;;;25.60;65.00;;;;;;5071706;28;20414;-64
2023/09/21 12:30:12;;;;;;;0.87;0.87;;;26.00;62.70;;;;;;5071902;28;20494;-65
2023/09/21 12:32:39;;;;;;;1.40;1.13;;;26.40;60.90;;;;;;5071654;28;20399;-65
2023/09/21 12:35:08;;;;;;;1.03;1.00;;;26.60;58.90;;;;;;5071572;28;20422;-65
2023/09/21 12:37:35;;;;;;;1.27;1.00;;;26.80;58.20;;;;;;5071068;28;20802;-64
2023/09/21 12:40:04;;;;;;;0.83;0.80;;;26.80;56.30;;;;;;5071530;28;20392;-65
2023/09/21 12:42:29;;;;;;;0.70;0.63;;;26.80;57.00;;;;;;5071706;28;20423;-65
2023/09/21 12:44:55;;;;;;;0.80;0.80;;;26.80;55.80;;;;;;5071463;28;20399;-65
2023/09/21 12:47:21;;;;;;;0.80;0.70;;;26.60;56.10;;;;;;5071619;28;20607;-65
2023/09/21 12:49:47;;;;;;;2.00;0.90;;;26.50;58.00;;;;;;5071041;28;20427;-64
2023/09/21 12:52:14;;;;;;;0.90;0.70;;;26.40;58.10;;;;;;5070732;28;20173;-65